Humphrey, Arkansas
Current Conditions -  °F | °C
As of 10:15 PM on Sunday 23 Nov 2014 (Local Time) from KSGT Reporting Station
Clear Clear  
Wind Chill: 16°   Ceiling: Unl
Heat Index: 16°   Visibility: 10mi
Dew Point: 13°   Wind: 20mph
Humidity: 82%   Direction: 190°S
Pressure: 29.42"   Gusts: 26mph
Location:  34.42°N, 91.71°W
Report Text: KSGT 240415Z AUTO 19017G23KT 10SM CLR 16/13 A2942 RMK AO1
Loading
Personal Weather Stations






























Interactive Weather Map New forecast layout! Learn more

10-Day Weather Forecast

Advertisements
Track Severe Weather on mobile